Time;durP1;ratioP1;P1;durP2;ratioP2;P2;SDS_P1;SDS_P2;PMS_P1;PMS_P2;Temp;Humidity;BMP_temperature;BMP_pressure;BME280_temperature;BME280_humidity;BME280_pressure;Samples;Min_cycle;Max_cycle;Signal;HPM_P1;HPM_P2
2022/12/02 15:03:07;;;;;;;61.08;26.90;;;2.70;85.10;;;;;;5090704;28;20110;-59
2022/12/02 15:05:32;;;;;;;57.53;25.00;;;2.80;84.70;;;;;;5090501;28;20021;-59
2022/12/02 15:07:58;;;;;;;56.00;24.60;;;2.80;84.50;;;;;;5090330;28;20020;-57
2022/12/02 15:10:24;;;;;;;56.13;26.48;;;2.80;84.50;;;;;;5088767;28;20103;-60
2022/12/02 15:12:49;;;;;;;60.00;29.45;;;2.80;84.30;;;;;;5090403;28;20059;-59
2022/12/02 15:15:15;;;;;;;56.22;26.52;;;2.80;84.10;;;;;;5090309;28;20491;-62
2022/12/02 15:17:41;;;;;;;51.45;24.92;;;2.80;84.50;;;;;;5090011;28;20111;-59
2022/12/02 15:20:08;;;;;;;53.13;26.73;;;2.80;84.30;;;;;;5090189;28;20361;-59
2022/12/02 15:22:34;;;;;;;58.53;26.27;;;2.80;84.10;;;;;;5090104;28;20100;-60
2022/12/02 15:25:00;;;;;;;51.40;24.98;;;2.80;84.60;;;;;;5090543;28;20073;-60
2022/12/02 15:27:25;;;;;;;49.97;24.63;;;2.80;84.30;;;;;;5090254;28;20035;-61
2022/12/02 15:29:51;;;;;;;60.00;29.80;;;2.80;84.10;;;;;;5089894;28;20024;-60
2022/12/02 15:32:16;;;;;;;55.15;24.02;;;2.80;84.00;;;;;;5090019;28;20082;-59
2022/12/02 15:34:42;;;;;;;50.53;25.23;;;2.90;83.80;;;;;;5089719;28;20060;-58
2022/12/02 15:37:09;;;;;;;45.45;22.67;;;2.90;83.80;;;;;;5089984;28;20079;-58
2022/12/02 15:39:35;;;;;;;54.60;26.90;;;2.80;83.80;;;;;;5088570;28;20024;-60
2022/12/02 15:42:01;;;;;;;48.78;23.50;;;2.80;84.10;;;;;;5089814;28;20081;-58
2022/12/02 15:44:28;;;;;;;55.17;27.73;;;2.80;84.00;;;;;;5089503;28;20383;-60
2022/12/02 15:46:54;;;;;;;51.53;23.73;;;2.80;83.70;;;;;;5089950;28;20468;-60
2022/12/02 15:49:20;;;;;;;45.17;24.35;;;2.80;83.30;;;;;;5089503;28;20433;-58
2022/12/02 15:51:45;;;;;;;49.30;22.95;;;2.80;83.50;;;;;;5089749;28;20029;-58
2022/12/02 15:54:11;;;;;;;47.60;24.92;;;2.80;83.50;;;;;;5090177;28;20024;-60
2022/12/02 15:56:37;;;;;;;50.30;24.25;;;2.70;83.10;;;;;;5089474;28;20024;-57
2022/12/02 15:59:03;;;;;;;50.40;23.58;;;2.70;83.50;;;;;;5089115;28;20032;-58
2022/12/02 16:01:29;;;;;;;54.22;26.55;;;2.70;83.00;;;;;;5088734;28;20045;-60
2022/12/02 16:03:55;;;;;;;45.05;23.35;;;2.80;83.30;;;;;;5089216;28;20073;-60
2022/12/02 16:06:21;;;;;;;50.22;23.42;;;2.80;83.10;;;;;;5088985;28;20021;-58
2022/12/02 16:08:48;;;;;;;51.58;23.90;;;2.80;83.00;;;;;;5089087;28;20021;-58
2022/12/02 16:11:14;;;;;;;51.47;24.80;;;2.70;83.30;;;;;;5089227;28;20402;-61
2022/12/02 16:13:40;;;;;;;50.53;24.80;;;2.60;83.70;;;;;;5080117;28;20033;-59
2022/12/02 16:16:06;;;;;;;55.55;25.52;;;2.60;83.80;;;;;;5075560;28;20108;-60
2022/12/02 16:18:32;;;;;;;52.00;24.30;;;2.50;84.40;;;;;;5075775;28;20419;-59
2022/12/02 16:20:58;;;;;;;52.25;25.25;;;2.50;84.80;;;;;;5075860;28;20035;-59
2022/12/02 16:23:24;;;;;;;54.40;27.50;;;2.50;84.90;;;;;;5074419;28;20029;-60
2022/12/02 16:25:49;;;;;;;55.00;28.15;;;2.50;84.80;;;;;;5075559;28;20023;-59
2022/12/02 16:28:15;;;;;;;50.35;25.65;;;2.50;84.80;;;;;;5075332;28;20078;-59
2022/12/02 16:30:41;;;;;;;56.75;25.88;;;2.30;85.20;;;;;;5075740;28;20571;-60
2022/12/02 16:33:07;;;;;;;56.38;27.73;;;2.30;85.70;;;;;;5075546;28;20021;-58
2022/12/02 16:35:32;;;;;;;53.72;27.75;;;2.40;85.60;;;;;;5075321;28;20027;-59
2022/12/02 16:37:58;;;;;;;56.75;26.90;;;2.30;85.70;;;;;;5074473;28;20025;-59
2022/12/02 16:40:24;;;;;;;64.80;28.00;;;2.40;85.80;;;;;;5075052;28;20043;-59
2022/12/02 16:42:49;;;;;;;61.22;28.73;;;2.30;86.20;;;;;;5075561;28;20021;-60
2022/12/02 16:45:15;;;;;;;61.15;25.95;;;2.30;86.10;;;;;;5074280;28;20025;-59
2022/12/02 16:47:40;;;;;;;55.30;27.23;;;2.30;86.10;;;;;;5075026;28;20522;-62
2022/12/02 16:50:07;;;;;;;56.53;25.17;;;2.30;86.00;;;;;;5075812;28;20403;-60
2022/12/02 16:52:32;;;;;;;56.50;28.55;;;2.20;86.80;;;;;;5075564;28;20467;-59
2022/12/02 16:54:58;;;;;;;52.22;26.20;;;2.20;86.80;;;;;;5075178;28;20028;-60
2022/12/02 16:57:23;;;;;;;58.33;28.83;;;2.20;86.50;;;;;;5075290;28;20033;-59
2022/12/02 16:59:49;;;;;;;57.97;26.60;;;2.20;86.70;;;;;;5074710;28;20028;-61
2022/12/02 17:02:15;;;;;;;58.47;26.67;;;2.20;86.40;;;;;;5074640;28;20066;-59
2022/12/02 17:04:40;;;;;;;56.25;25.98;;;2.20;86.40;;;;;;5075874;28;20021;-60
2022/12/02 17:07:06;;;;;;;53.90;24.85;;;2.20;86.10;;;;;;5075962;28;20174;-60
2022/12/02 17:09:32;;;;;;;58.25;25.27;;;2.20;85.90;;;;;;5077243;28;20025;-61
2022/12/02 17:11:58;;;;;;;51.88;24.60;;;2.30;85.80;;;;;;5075122;28;20036;-59
2022/12/02 17:14:24;;;;;;;49.75;22.58;;;2.30;85.20;;;;;;5074799;28;20033;-61
2022/12/02 17:16:50;;;;;;;50.40;26.85;;;2.30;85.20;;;;;;5074955;28;20031;-62
2022/12/02 17:19:15;;;;;;;55.97;23.63;;;2.20;85.20;;;;;;5073538;28;20055;-58
2022/12/02 17:21:41;;;;;;;58.67;26.63;;;2.30;85.30;;;;;;5073131;28;20032;-59
2022/12/02 17:24:07;;;;;;;56.70;26.88;;;2.20;85.30;;;;;;5074003;28;20025;-59
2022/12/02 17:26:32;;;;;;;46.83;19.80;;;2.20;85.50;;;;;;5073918;28;20074;-61
2022/12/02 17:28:58;;;;;;;47.65;23.88;;;2.30;85.00;;;;;;5056337;28;20128;-61
2022/12/02 17:31:24;;;;;;;49.17;25.02;;;2.30;84.90;;;;;;5074388;28;20104;-60
2022/12/02 17:33:49;;;;;;;43.22;19.60;;;2.20;85.10;;;;;;5072951;28;20029;-61
2022/12/02 17:36:15;;;;;;;50.42;22.83;;;2.10;85.10;;;;;;5074630;28;20037;-59
2022/12/02 17:38:49;;;;;;;55.47;23.90;;;2.10;85.10;;;;;;5074484;28;20024;-59
2022/12/02 17:41:17;;;;;;;47.10;22.15;;;2.20;85.30;;;;;;5075888;28;20024;-59
2022/12/02 17:43:42;;;;;;;45.45;21.90;;;2.20;85.10;;;;;;5074831;28;20024;-61
2022/12/02 17:46:08;;;;;;;45.95;22.30;;;2.20;85.50;;;;;;5075894;28;20424;-61
2022/12/02 17:48:34;;;;;;;46.60;22.25;;;2.10;85.10;;;;;;5074806;28;20023;-58
2022/12/02 17:50:59;;;;;;;45.40;21.23;;;2.10;85.50;;;;;;5074521;28;20039;-60
2022/12/02 17:53:25;;;;;;;44.63;22.27;;;2.10;85.30;;;;;;5074226;28;20016;-61
2022/12/02 17:55:51;;;;;;;45.67;20.50;;;2.20;85.40;;;;;;5073766;28;20032;-61
2022/12/02 17:58:17;;;;;;;48.17;22.85;;;2.20;85.30;;;;;;5074133;28;20491;-61
2022/12/02 18:00:42;;;;;;;44.83;22.05;;;2.20;85.50;;;;;;5073693;28;20070;-58
2022/12/02 18:03:08;;;;;;;48.58;21.17;;;2.10;85.40;;;;;;5074388;28;20032;-63
2022/12/02 18:05:34;;;;;;;44.60;21.95;;;2.10;85.60;;;;;;5075140;28;20028;-59
2022/12/02 18:07:59;;;;;;;48.15;22.23;;;2.10;85.70;;;;;;5074134;28;20419;-59
2022/12/02 18:10:25;;;;;;;43.85;21.00;;;2.00;85.70;;;;;;5073997;28;20043;-61
2022/12/02 18:12:50;;;;;;;37.15;18.73;;;2.00;86.00;;;;;;5074673;28;20361;-59
2022/12/02 18:15:16;;;;;;;39.90;19.52;;;1.90;86.40;;;;;;5073524;28;20078;-59
2022/12/02 18:17:42;;;;;;;49.03;22.45;;;1.90;86.40;;;;;;5072451;28;20048;-61
2022/12/02 18:20:09;;;;;;;43.67;20.13;;;2.00;86.90;;;;;;5073335;28;20425;-62
2022/12/02 18:22:35;;;;;;;41.78;20.60;;;1.90;86.70;;;;;;5072590;28;20022;-58
2022/12/02 18:25:00;;;;;;;45.03;19.95;;;1.80;87.30;;;;;;5073500;28;20013;-60
2022/12/02 18:27:27;;;;;;;35.95;19.52;;;1.80;87.60;;;;;;5073820;28;20380;-60
2022/12/02 18:29:55;;;;;;;47.63;19.73;;;1.80;87.60;;;;;;5073759;28;20052;-60
2022/12/02 18:32:21;;;;;;;40.63;19.80;;;1.80;88.00;;;;;;5073253;28;20020;-58
2022/12/02 18:34:46;;;;;;;45.72;20.88;;;1.80;88.50;;;;;;5073002;28;20059;-59
2022/12/02 18:37:12;;;;;;;49.75;24.08;;;1.70;88.60;;;;;;5072866;28;20360;-60
2022/12/02 18:39:38;;;;;;;43.35;21.30;;;1.70;88.70;;;;;;5073606;28;20024;-59
2022/12/02 18:42:04;;;;;;;42.55;22.27;;;1.70;88.80;;;;;;5071592;28;20024;-59
2022/12/02 18:44:29;;;;;;;45.97;20.63;;;1.70;89.20;;;;;;5072522;28;20020;-60
2022/12/02 18:46:55;;;;;;;43.72;22.48;;;1.70;89.10;;;;;;5073575;28;20021;-58
2022/12/02 18:49:21;;;;;;;46.00;21.75;;;1.80;89.20;;;;;;5073540;28;20104;-61
2022/12/02 18:51:47;;;;;;;43.30;19.75;;;1.80;89.40;;;;;;5072053;28;20031;-60
2022/12/02 18:54:12;;;;;;;39.88;18.30;;;1.70;89.10;;;;;;5073727;28;20029;-58
2022/12/02 18:56:38;;;;;;;48.17;21.73;;;1.60;89.60;;;;;;5072947;28;20024;-59
2022/12/02 18:59:04;;;;;;;40.50;20.85;;;1.60;89.90;;;;;;5072590;28;20491;-59
2022/12/02 19:01:29;;;;;;;48.20;20.27;;;1.60;89.90;;;;;;5072427;28;20048;-60
2022/12/02 19:03:56;;;;;;;46.42;21.35;;;1.60;90.00;;;;;;5073054;28;20385;-59
2022/12/02 19:06:21;;;;;;;46.53;21.35;;;1.50;90.30;;;;;;5073925;28;20025;-60
2022/12/02 19:08:47;;;;;;;44.85;21.83;;;1.50;90.00;;;;;;5072826;28;20035;-60
2022/12/02 19:11:13;;;;;;;47.17;22.15;;;1.60;90.20;;;;;;5072696;28;20031;-58
2022/12/02 19:13:39;;;;;;;46.00;22.60;;;1.60;90.30;;;;;;5071479;28;20025;-59
2022/12/02 19:16:05;;;;;;;45.33;22.60;;;1.60;89.90;;;;;;5071760;28;20388;-59
2022/12/02 19:18:31;;;;;;;50.25;24.42;;;1.60;90.20;;;;;;5072692;28;20029;-58
2022/12/02 19:20:57;;;;;;;43.20;22.40;;;1.60;90.10;;;;;;5072643;28;20028;-59
2022/12/02 19:23:23;;;;;;;43.53;19.23;;;1.50;89.80;;;;;;5072758;28;20027;-58
2022/12/02 19:25:49;;;;;;;49.15;23.23;;;1.50;90.20;;;;;;5072608;28;20025;-60
2022/12/02 19:28:14;;;;;;;48.03;23.90;;;1.50;90.50;;;;;;5072786;28;20020;-59
2022/12/02 19:30:40;;;;;;;57.00;28.55;;;1.50;90.70;;;;;;5073332;28;20045;-57
2022/12/02 19:33:05;;;;;;;48.50;23.27;;;1.60;90.50;;;;;;5072908;28;20020;-58
2022/12/02 19:35:31;;;;;;;48.47;22.02;;;1.50;90.20;;;;;;5072780;28;20028;-59
2022/12/02 19:37:57;;;;;;;43.03;20.88;;;1.50;90.50;;;;;;5072456;28;20028;-60
2022/12/02 19:40:22;;;;;;;44.45;21.55;;;1.50;90.50;;;;;;5072764;28;20066;-58
2022/12/02 19:42:48;;;;;;;50.38;22.33;;;1.50;90.70;;;;;;5072515;28;20075;-59
2022/12/02 19:45:14;;;;;;;46.47;22.55;;;1.60;90.50;;;;;;5072452;28;20031;-60
2022/12/02 19:47:40;;;;;;;43.15;21.35;;;1.50;90.40;;;;;;5073111;28;20048;-58
2022/12/02 19:50:07;;;;;;;51.53;23.17;;;1.50;90.30;;;;;;5076638;28;20035;-57
2022/12/02 19:52:33;;;;;;;42.08;23.25;;;1.60;90.50;;;;;;5076300;28;20035;-59
2022/12/02 19:54:58;;;;;;;47.47;23.42;;;1.60;90.30;;;;;;5076256;28;20103;-60
2022/12/02 19:57:24;;;;;;;47.78;22.40;;;1.60;90.30;;;;;;5076244;28;20025;-60
2022/12/02 19:59:50;;;;;;;39.00;20.30;;;1.50;90.30;;;;;;5076374;28;20029;-56
2022/12/02 20:02:15;;;;;;;38.53;18.85;;;1.50;90.10;;;;;;5075912;28;20040;-59
2022/12/02 20:04:41;;;;;;;43.88;21.33;;;1.60;90.30;;;;;;5076392;28;20104;-59
2022/12/02 20:07:07;;;;;;;36.33;18.63;;;1.50;90.20;;;;;;5076374;28;20541;-58
2022/12/02 20:09:32;;;;;;;42.33;19.95;;;1.60;90.10;;;;;;5076159;28;20362;-59
2022/12/02 20:11:58;;;;;;;41.78;19.90;;;1.60;90.20;;;;;;5076351;28;20059;-59
2022/12/02 20:14:23;;;;;;;43.15;22.00;;;1.60;90.10;;;;;;5074603;28;20028;-59
2022/12/02 20:16:49;;;;;;;45.05;21.73;;;1.50;90.00;;;;;;5076013;28;20031;-59
2022/12/02 20:19:15;;;;;;;45.65;23.17;;;1.50;90.30;;;;;;5076192;28;20016;-60
2022/12/02 20:21:41;;;;;;;45.17;21.70;;;1.50;90.30;;;;;;5076070;28;20032;-58
2022/12/02 20:24:06;;;;;;;46.28;22.67;;;1.50;90.10;;;;;;5075628;28;20100;-58
2022/12/02 20:26:32;;;;;;;41.53;21.27;;;1.50;90.20;;;;;;5075833;28;20419;-58
2022/12/02 20:28:58;;;;;;;45.25;21.63;;;1.40;90.20;;;;;;5075527;28;20380;-60
2022/12/02 20:31:23;;;;;;;42.65;21.27;;;1.40;90.10;;;;;;5075446;28;20028;-61
2022/12/02 20:33:49;;;;;;;44.42;21.67;;;1.50;90.20;;;;;;5076468;28;20103;-59
2022/12/02 20:36:14;;;;;;;47.83;21.70;;;1.50;90.20;;;;;;5076640;28;20037;-60
2022/12/02 20:38:40;;;;;;;40.20;20.95;;;1.50;90.20;;;;;;5077347;28;20035;-62
2022/12/02 20:41:06;;;;;;;44.75;21.85;;;1.50;90.40;;;;;;5077261;28;20048;-61
2022/12/02 20:43:31;;;;;;;40.28;21.38;;;1.50;90.50;;;;;;5075866;28;20012;-59
2022/12/02 20:45:57;;;;;;;44.90;20.70;;;1.50;90.70;;;;;;5075523;28;20020;-60
2022/12/02 20:48:23;;;;;;;50.58;22.63;;;1.50;90.80;;;;;;5075720;28;20024;-60
2022/12/02 20:50:48;;;;;;;46.00;20.67;;;1.40;90.70;;;;;;5075499;28;20099;-59
2022/12/02 20:53:14;;;;;;;45.00;21.98;;;1.40;90.90;;;;;;5074251;28;20025;-59
2022/12/02 20:55:39;;;;;;;44.20;20.75;;;1.40;90.50;;;;;;5074073;28;20032;-61
2022/12/02 20:58:07;;;;;;;43.42;20.13;;;1.30;90.70;;;;;;5075156;28;20028;-61
2022/12/02 21:00:33;;;;;;;41.28;19.75;;;1.40;90.70;;;;;;5073825;28;20481;-60
